Kimberly Turecamo — WDC6838 — position and weather

sailwx.info

Track history (hours):
 
Tides and Currents Weather Stations Pressure Air Temp Water Temp Dewpoint Dewpoint Depression Visibility Wind Speed Wind Dir Waves Ship Positions

Kimberly Turecamo

Owner: Moran Towing Corporation, New Canaan, CT. More information available from US FCC via Universal Licensing System and Coast Guard Vessel Documentation Center.

Last reported at 2018-Jan-21 17:39 UTC. Time now 2018-Jan-21 18:21 UTC.
Position N 40°35' W 074°12'.

Length 31 m; draft 5 m.

Type: Tug. MMSI: 367061980.

Date/timePositionNaut miles runAvg speedWind from/ knotsBaromVisibWave heightAir tempDewpointWater temp
2018-Jan-21 17:39N 40°35' W 074°12'1 3.4
2018-Jan-21 17:28N 40°34' W 074°13'3 1.4
2018-Jan-21 15:31N 40°33' W 074°15'0 9.8
2018-Jan-21 15:30N 40°33' W 074°15'4 7.5
2018-Jan-21 15:00N 40°36' W 074°12'2 3.9
2018-Jan-21 14:29N 40°38' W 074°12'0 0.4
2018-Jan-21 13:58N 40°38' W 074°12'1 2.5
2018-Jan-21 13:30N 40°39' W 074°11'2 2.5
2018-Jan-21 12:31N 40°39' W 074°08'0 9.7
2018-Jan-21 12:29N 40°39' W 074°07'4 8.5
2018-Jan-21 12:00N 40°40' W 074°02'0 0.2
2018-Jan-21 11:29N 40°40' W 074°02'3 7.1
2018-Jan-21 11:00N 40°43' W 073°59'5 9.6
2018-Jan-21 10:30N 40°47' W 073°56'2 3.2
2018-Jan-21 09:54N 40°47' W 073°54'0 0.0
2018-Jan-21 09:27N 40°47' W 073°54'0 0.1
2018-Jan-21 08:57N 40°47' W 073°54'0 0.2
2018-Jan-21 08:24N 40°47' W 073°54'0 0.1
2018-Jan-21 08:00N 40°47' W 073°54'0 0.1
2018-Jan-21 07:30N 40°47' W 073°54'0 0.0
2018-Jan-21 07:00N 40°47' W 073°54'1 1.6
2018-Jan-21 06:24N 40°48' W 073°55'0 0.0
2018-Jan-21 06:00N 40°48' W 073°55'0 0.0
2018-Jan-21 05:26N 40°48' W 073°55'0 0.0
2018-Jan-21 04:56N 40°48' W 073°55'0 0.0
2018-Jan-21 04:28N 40°48' W 073°55'4 8.2
2018-Jan-21 04:00N 40°45' W 073°58'5 9.5
2018-Jan-21 03:30N 40°41' W 074°01'4 8.4
2018-Jan-21 03:01N 40°39' W 074°06'1 1.1
2018-Jan-21 02:30N 40°39' W 074°05'1 1.3
2018-Jan-21 01:55N 40°39' W 074°06'1 1.5
2018-Jan-21 01:27N 40°39' W 074°07'1 1.6
2018-Jan-21 00:56N 40°38' W 074°08'1 2.2
2018-Jan-21 00:29N 40°39' W 074°07'0 0.0
2018-Jan-20 23:50N 40°39' W 074°07'0 0.0
2018-Jan-20 23:29N 40°39' W 074°07'0 0.0
2018-Jan-20 22:47N 40°39' W 074°07'0 0.0
2018-Jan-20 22:29N 40°39' W 074°07'0 0.0
2018-Jan-20 21:59N 40°39' W 074°07'0 0.5
2018-Jan-20 21:06N 40°39' W 074°07'0 0.1
2018-Jan-20 21:00N 40°39' W 074°07'1 3.0
2018-Jan-20 20:30N 40°39' W 074°05'2 2.6
2018-Jan-20 19:49N 40°38' W 074°04'0 0.8
2018-Jan-20 19:30N 40°38' W 074°03'1 2.5
2018-Jan-20 19:00N 40°39' W 074°03'3 6.1
2018-Jan-20 18:30N 40°41' W 074°01'612.1
2018-Jan-20 18:00N 40°46' W 073°57'2 2.1
2018-Jan-20 16:57N 40°47' W 073°54'1 2.4
2018-Jan-20 16:27N 40°48' W 073°53'1 2.9
2018-Jan-20 16:00N 40°48' W 073°51'2 2.5
2018-Jan-20 15:13N 40°48' W 073°48'1 2.6
2018-Jan-20 14:54N 40°48' W 073°47'1 3.2
2018-Jan-20 14:28N 40°50' W 073°47'2 3.5
2018-Jan-20 13:53N 40°51' W 073°45'52 1.8
2018-Jan-19 09:26N 41°01' W 072°38'6 4.4
2018-Jan-19 08:05N 41°05' W 072°32'1 5.8
2018-Jan-19 07:58N 41°06' W 072°31'1 2.0
2018-Jan-19 07:28N 41°06' W 072°30'7 1.6
2018-Jan-19 03:10N 41°09' W 072°22'210.7
2018-Jan-19 03:00N 41°10' W 072°20'97 8.4
2018-Jan-18 15:30N 42°03' W 070°32'5 9.8
2018-Jan-18 14:57N 42°08' W 070°35'4 9.7
2018-Jan-18 14:30N 42°12' W 070°38'5 9.6
2018-Jan-18 14:00N 42°16' W 070°41'5 9.1
2018-Jan-18 13:30N 42°18' W 070°46'4 8.6
2018-Jan-18 13:00N 42°19' W 070°52'2 4.3
2018-Jan-18 12:29N 42°19' W 070°55'5 7.0
2018-Jan-18 11:49N 42°15' W 070°58'1 3.0
2018-Jan-18 11:29N 42°15' W 070°59'0 0.0
2018-Jan-18 10:58N 42°15' W 070°59'0 0.0
2018-Jan-18 10:27N 42°15' W 070°59'0 0.0
2018-Jan-18 10:01N 42°15' W 070°59'0 0.0
2018-Jan-18 09:21N 42°15' W 070°59'0 0.0
2018-Jan-18 08:58N 42°15' W 070°59'0 0.0
2018-Jan-18 08:26N 42°15' W 070°59'0 0.0
2018-Jan-18 04:41N 42°15' W 070°59'0 0.0
2018-Jan-18 04:23N 42°15' W 070°59'0 0.0
2018-Jan-18 02:39N 42°15' W 070°59'0 0.0
2018-Jan-18 02:18N 42°15' W 070°59'0 0.0
2018-Jan-18 00:15N 42°15' W 070°59'  
2018-Jan-12 14:58N 40°39' W 074°03'0 0.1
2018-Jan-12 14:28N 40°39' W 074°03'0 0.3
2018-Jan-12 13:58N 40°39' W 074°03'0 0.2
2018-Jan-12 13:28N 40°39' W 074°03'0 0.1
2018-Jan-12 12:58N 40°39' W 074°03'0 0.0
2018-Jan-12 12:28N 40°39' W 074°03'0 0.0
2018-Jan-12 11:58N 40°39' W 074°03'0 0.0
2018-Jan-12 11:28N 40°39' W 074°03'0 0.0
2018-Jan-12 10:58N 40°39' W 074°03'0 0.1
2018-Jan-12 10:28N 40°39' W 074°03'0 0.0
2018-Jan-12 09:58N 40°39' W 074°03'0 0.0
2018-Jan-12 09:28N 40°39' W 074°03'0 0.0
2018-Jan-12 08:58N 40°39' W 074°03'0 0.1
2018-Jan-12 08:28N 40°39' W 074°03'0 0.0
2018-Jan-12 07:58N 40°39' W 074°03'0 0.1
2018-Jan-12 07:28N 40°39' W 074°03'0 0.2
2018-Jan-12 06:58N 40°39' W 074°03'0 0.1
2018-Jan-12 06:28N 40°39' W 074°03'0 0.1
2018-Jan-12 05:58N 40°39' W 074°03'0 0.0
2018-Jan-12 05:28N 40°39' W 074°03'0 0.0
2018-Jan-12 04:58N 40°39' W 074°03'0 0.1
2018-Jan-12 04:30N 40°39' W 074°03'2 4.3
2018-Jan-12 04:00N 40°39' W 074°06'3 5.8
2018-Jan-12 03:30N 40°39' W 074°10'2 3.5
2018-Jan-12 03:00N 40°38' W 074°12'0 0.1
2018-Jan-12 02:30N 40°38' W 074°12'3 1.6
2018-Jan-12 00:37N 40°38' W 074°08'1 7.6
2018-Jan-12 00:30N 40°39' W 074°09'2 3.8
2018-Jan-12 00:00N 40°41' W 074°08'0 0.7
2018-Jan-11 23:30N 40°40' W 074°08'2 3.4
2018-Jan-11 23:00N 40°39' W 074°07'3 6.2
2018-Jan-11 22:30N 40°39' W 074°03'3 5.9
2018-Jan-11 21:57N 40°38' W 074°08'0 0.0
2018-Jan-11 21:30N 40°38' W 074°08'0 0.0
2018-Jan-11 21:00N 40°38' W 074°08'0 0.0
2018-Jan-11 20:29N 40°38' W 074°08'3 2.1
2018-Jan-11 19:05N 40°38' W 074°12'1 5.1
2018-Jan-11 18:49N 40°39' W 074°10'3 7.9
2018-Jan-11 18:28N 40°39' W 074°06'1 1.2
2018-Jan-11 18:00N 40°39' W 074°06'  
Track history (hours):
 
Tides and Currents Weather Stations Pressure Air Temp Water Temp Dewpoint Dewpoint Depression Visibility Wind Speed Wind Dir Waves Ship Positions

Kimberly Turecamo

Owner: Moran Towing Corporation, New Canaan, CT. More information available from US FCC via Universal Licensing System and Coast Guard Vessel Documentation Center.

Last reported at 2018-Jan-21 17:39 UTC. Time now 2018-Jan-21 18:21 UTC.
Position N 40°35' W 074°12'.

Length 31 m; draft 5 m.

Type: Tug. MMSI: 367061980.

Date/timePositionNaut miles runAvg speedWind from/ knotsBaromVisibWave heightAir tempDewpointWater temp
2018-Jan-21 17:39N 40°35' W 074°12'1 3.4
2018-Jan-21 17:28N 40°34' W 074°13'3 1.4
2018-Jan-21 15:31N 40°33' W 074°15'0 9.8
2018-Jan-21 15:30N 40°33' W 074°15'4 7.5
2018-Jan-21 15:00N 40°36' W 074°12'2 3.9
2018-Jan-21 14:29N 40°38' W 074°12'0 0.4
2018-Jan-21 13:58N 40°38' W 074°12'1 2.5
2018-Jan-21 13:30N 40°39' W 074°11'2 2.5
2018-Jan-21 12:31N 40°39' W 074°08'0 9.7
2018-Jan-21 12:29N 40°39' W 074°07'4 8.5
2018-Jan-21 12:00N 40°40' W 074°02'0 0.2
2018-Jan-21 11:29N 40°40' W 074°02'3 7.1
2018-Jan-21 11:00N 40°43' W 073°59'5 9.6
2018-Jan-21 10:30N 40°47' W 073°56'2 3.2
2018-Jan-21 09:54N 40°47' W 073°54'0 0.0
2018-Jan-21 09:27N 40°47' W 073°54'0 0.1
2018-Jan-21 08:57N 40°47' W 073°54'0 0.2
2018-Jan-21 08:24N 40°47' W 073°54'0 0.1
2018-Jan-21 08:00N 40°47' W 073°54'0 0.1
2018-Jan-21 07:30N 40°47' W 073°54'0 0.0
2018-Jan-21 07:00N 40°47' W 073°54'1 1.6
2018-Jan-21 06:24N 40°48' W 073°55'0 0.0
2018-Jan-21 06:00N 40°48' W 073°55'0 0.0
2018-Jan-21 05:26N 40°48' W 073°55'0 0.0
2018-Jan-21 04:56N 40°48' W 073°55'0 0.0
2018-Jan-21 04:28N 40°48' W 073°55'4 8.2
2018-Jan-21 04:00N 40°45' W 073°58'5 9.5
2018-Jan-21 03:30N 40°41' W 074°01'4 8.4
2018-Jan-21 03:01N 40°39' W 074°06'1 1.1
2018-Jan-21 02:30N 40°39' W 074°05'1 1.3
2018-Jan-21 01:55N 40°39' W 074°06'1 1.5
2018-Jan-21 01:27N 40°39' W 074°07'1 1.6
2018-Jan-21 00:56N 40°38' W 074°08'1 2.2
2018-Jan-21 00:29N 40°39' W 074°07'0 0.0
2018-Jan-20 23:50N 40°39' W 074°07'0 0.0
2018-Jan-20 23:29N 40°39' W 074°07'0 0.0
2018-Jan-20 22:47N 40°39' W 074°07'0 0.0
2018-Jan-20 22:29N 40°39' W 074°07'0 0.0
2018-Jan-20 21:59N 40°39' W 074°07'0 0.5
2018-Jan-20 21:06N 40°39' W 074°07'0 0.1
2018-Jan-20 21:00N 40°39' W 074°07'1 3.0
2018-Jan-20 20:30N 40°39' W 074°05'2 2.6
2018-Jan-20 19:49N 40°38' W 074°04'0 0.8
2018-Jan-20 19:30N 40°38' W 074°03'1 2.5
2018-Jan-20 19:00N 40°39' W 074°03'3 6.1
2018-Jan-20 18:30N 40°41' W 074°01'612.1
2018-Jan-20 18:00N 40°46' W 073°57'2 2.1
2018-Jan-20 16:57N 40°47' W 073°54'1 2.4
2018-Jan-20 16:27N 40°48' W 073°53'1 2.9
2018-Jan-20 16:00N 40°48' W 073°51'2 2.5
2018-Jan-20 15:13N 40°48' W 073°48'1 2.6
2018-Jan-20 14:54N 40°48' W 073°47'1 3.2
2018-Jan-20 14:28N 40°50' W 073°47'2 3.5
2018-Jan-20 13:53N 40°51' W 073°45'52 1.8
2018-Jan-19 09:26N 41°01' W 072°38'6 4.4
2018-Jan-19 08:05N 41°05' W 072°32'1 5.8
2018-Jan-19 07:58N 41°06' W 072°31'1 2.0
2018-Jan-19 07:28N 41°06' W 072°30'7 1.6
2018-Jan-19 03:10N 41°09' W 072°22'210.7
2018-Jan-19 03:00N 41°10' W 072°20'97 8.4
2018-Jan-18 15:30N 42°03' W 070°32'5 9.8
2018-Jan-18 14:57N 42°08' W 070°35'4 9.7
2018-Jan-18 14:30N 42°12' W 070°38'5 9.6
2018-Jan-18 14:00N 42°16' W 070°41'5 9.1
2018-Jan-18 13:30N 42°18' W 070°46'4 8.6
2018-Jan-18 13:00N 42°19' W 070°52'2 4.3
2018-Jan-18 12:29N 42°19' W 070°55'5 7.0
2018-Jan-18 11:49N 42°15' W 070°58'1 3.0
2018-Jan-18 11:29N 42°15' W 070°59'0 0.0
2018-Jan-18 10:58N 42°15' W 070°59'0 0.0
2018-Jan-18 10:27N 42°15' W 070°59'0 0.0
2018-Jan-18 10:01N 42°15' W 070°59'0 0.0
2018-Jan-18 09:21N 42°15' W 070°59'0 0.0
2018-Jan-18 08:58N 42°15' W 070°59'0 0.0
2018-Jan-18 08:26N 42°15' W 070°59'0 0.0
2018-Jan-18 04:41N 42°15' W 070°59'0 0.0
2018-Jan-18 04:23N 42°15' W 070°59'0 0.0
2018-Jan-18 02:39N 42°15' W 070°59'0 0.0
2018-Jan-18 02:18N 42°15' W 070°59'0 0.0
2018-Jan-18 00:15N 42°15' W 070°59'  
2018-Jan-12 14:58N 40°39' W 074°03'0 0.1
2018-Jan-12 14:28N 40°39' W 074°03'0 0.3
2018-Jan-12 13:58N 40°39' W 074°03'0 0.2
2018-Jan-12 13:28N 40°39' W 074°03'0 0.1
2018-Jan-12 12:58N 40°39' W 074°03'0 0.0
2018-Jan-12 12:28N 40°39' W 074°03'0 0.0
2018-Jan-12 11:58N 40°39' W 074°03'0 0.0
2018-Jan-12 11:28N 40°39' W 074°03'0 0.0
2018-Jan-12 10:58N 40°39' W 074°03'0 0.1
2018-Jan-12 10:28N 40°39' W 074°03'0 0.0
2018-Jan-12 09:58N 40°39' W 074°03'0 0.0
2018-Jan-12 09:28N 40°39' W 074°03'0 0.0
2018-Jan-12 08:58N 40°39' W 074°03'0 0.1
2018-Jan-12 08:28N 40°39' W 074°03'0 0.0
2018-Jan-12 07:58N 40°39' W 074°03'0 0.1
2018-Jan-12 07:28N 40°39' W 074°03'0 0.2
2018-Jan-12 06:58N 40°39' W 074°03'0 0.1
2018-Jan-12 06:28N 40°39' W 074°03'0 0.1
2018-Jan-12 05:58N 40°39' W 074°03'0 0.0
2018-Jan-12 05:28N 40°39' W 074°03'0 0.0
2018-Jan-12 04:58N 40°39' W 074°03'0 0.1
2018-Jan-12 04:30N 40°39' W 074°03'2 4.3
2018-Jan-12 04:00N 40°39' W 074°06'3 5.8
2018-Jan-12 03:30N 40°39' W 074°10'2 3.5
2018-Jan-12 03:00N 40°38' W 074°12'0 0.1
2018-Jan-12 02:30N 40°38' W 074°12'3 1.6
2018-Jan-12 00:37N 40°38' W 074°08'1 7.6
2018-Jan-12 00:30N 40°39' W 074°09'2 3.8
2018-Jan-12 00:00N 40°41' W 074°08'0 0.7
2018-Jan-11 23:30N 40°40' W 074°08'2 3.4
2018-Jan-11 23:00N 40°39' W 074°07'3 6.2
2018-Jan-11 22:30N 40°39' W 074°03'3 5.9
2018-Jan-11 21:57N 40°38' W 074°08'0 0.0
2018-Jan-11 21:30N 40°38' W 074°08'0 0.0
2018-Jan-11 21:00N 40°38' W 074°08'0 0.0
2018-Jan-11 20:29N 40°38' W 074°08'3 2.1
2018-Jan-11 19:05N 40°38' W 074°12'1 5.1
2018-Jan-11 18:49N 40°39' W 074°10'3 7.9
2018-Jan-11 18:28N 40°39' W 074°06'1 1.2
2018-Jan-11 18:00N 40°39' W 074°06'  

Dump ship's entire track history